sensor_id;sensor_type;location;lat;lon;timestamp;P1;durP1;ratioP1;P2;durP2;ratioP2
74995;SDS011;63545;51.690;5.202;2024-03-08T00:00:53;43.88;;;17.77;;
74995;SDS011;63545;51.690;5.202;2024-03-08T00:03:19;42.05;;;18.05;;
74995;SDS011;63545;51.690;5.202;2024-03-08T00:05:44;43.93;;;17.70;;
74995;SDS011;63545;51.690;5.202;2024-03-08T00:08:10;42.17;;;16.93;;
74995;SDS011;63545;51.690;5.202;2024-03-08T00:10:35;37.77;;;17.27;;
74995;SDS011;63545;51.690;5.202;2024-03-08T00:13:01;41.87;;;18.10;;
74995;SDS011;63545;51.690;5.202;2024-03-08T00:15:29;41.42;;;17.77;;
74995;SDS011;63545;51.690;5.202;2024-03-08T00:17:54;42.87;;;18.37;;
74995;SDS011;63545;51.690;5.202;2024-03-08T00:20:20;37.15;;;15.50;;
74995;SDS011;63545;51.690;5.202;2024-03-08T00:22:45;37.87;;;16.83;;
74995;SDS011;63545;51.690;5.202;2024-03-08T00:25:11;40.37;;;17.53;;
74995;SDS011;63545;51.690;5.202;2024-03-08T00:27:39;36.97;;;18.25;;
74995;SDS011;63545;51.690;5.202;2024-03-08T00:30:06;39.97;;;17.50;;
74995;SDS011;63545;51.690;5.202;2024-03-08T00:32:32;37.05;;;17.77;;
74995;SDS011;63545;51.690;5.202;2024-03-08T00:34:57;40.47;;;18.20;;
74995;SDS011;63545;51.690;5.202;2024-03-08T00:37:23;40.27;;;17.80;;
74995;SDS011;63545;51.690;5.202;2024-03-08T00:39:49;38.13;;;16.95;;
74995;SDS011;63545;51.690;5.202;2024-03-08T00:42:15;39.53;;;16.70;;
74995;SDS011;63545;51.690;5.202;2024-03-08T00:44:43;36.72;;;17.15;;
74995;SDS011;63545;51.690;5.202;2024-03-08T00:47:09;36.22;;;17.23;;
74995;SDS011;63545;51.690;5.202;2024-03-08T00:49:35;36.03;;;17.30;;
74995;SDS011;63545;51.690;5.202;2024-03-08T00:52:01;38.97;;;15.93;;
74995;SDS011;63545;51.690;5.202;2024-03-08T00:54:27;41.37;;;17.97;;
74995;SDS011;63545;51.690;5.202;2024-03-08T00:56:52;33.15;;;16.83;;
74995;SDS011;63545;51.690;5.202;2024-03-08T00:59:18;36.70;;;17.43;;
74995;SDS011;63545;51.690;5.202;2024-03-08T01:01:43;39.63;;;17.80;;
74995;SDS011;63545;51.690;5.202;2024-03-08T01:04:09;37.47;;;18.13;;
74995;SDS011;63545;51.690;5.202;2024-03-08T01:06:34;37.15;;;16.00;;
74995;SDS011;63545;51.690;5.202;2024-03-08T01:09:00;34.60;;;15.57;;
74995;SDS011;63545;51.690;5.202;2024-03-08T01:11:25;33.75;;;16.77;;
74995;SDS011;63545;51.690;5.202;2024-03-08T01:13:53;33.50;;;16.05;;
74995;SDS011;63545;51.690;5.202;2024-03-08T01:16:18;35.38;;;18.00;;
74995;SDS011;63545;51.690;5.202;2024-03-08T01:18:45;34.00;;;16.98;;
74995;SDS011;63545;51.690;5.202;2024-03-08T01:21:11;36.40;;;17.15;;
74995;SDS011;63545;51.690;5.202;2024-03-08T01:23:36;37.93;;;17.57;;
74995;SDS011;63545;51.690;5.202;2024-03-08T01:26:02;39.45;;;18.40;;
74995;SDS011;63545;51.690;5.202;2024-03-08T01:28:28;35.50;;;16.70;;
74995;SDS011;63545;51.690;5.202;2024-03-08T01:30:53;38.90;;;17.15;;
74995;SDS011;63545;51.690;5.202;2024-03-08T01:33:25;29.90;;;15.83;;
74995;SDS011;63545;51.690;5.202;2024-03-08T01:35:51;34.70;;;16.92;;
74995;SDS011;63545;51.690;5.202;2024-03-08T01:38:17;37.83;;;17.83;;
74995;SDS011;63545;51.690;5.202;2024-03-08T01:40:43;35.80;;;17.00;;
74995;SDS011;63545;51.690;5.202;2024-03-08T01:43:20;28.97;;;13.00;;
74995;SDS011;63545;51.690;5.202;2024-03-08T01:45:51;34.15;;;16.60;;
74995;SDS011;63545;51.690;5.202;2024-03-08T01:48:17;34.65;;;16.55;;
74995;SDS011;63545;51.690;5.202;2024-03-08T01:50:43;35.10;;;16.27;;
74995;SDS011;63545;51.690;5.202;2024-03-08T01:53:09;33.85;;;17.13;;
74995;SDS011;63545;51.690;5.202;2024-03-08T01:55:37;33.95;;;17.83;;
74995;SDS011;63545;51.690;5.202;2024-03-08T01:58:06;38.23;;;17.77;;
74995;SDS011;63545;51.690;5.202;2024-03-08T02:00:34;42.67;;;16.02;;
74995;SDS011;63545;51.690;5.202;2024-03-08T02:03:01;35.83;;;17.25;;
74995;SDS011;63545;51.690;5.202;2024-03-08T02:05:26;35.92;;;17.52;;
74995;SDS011;63545;51.690;5.202;2024-03-08T02:07:52;33.97;;;17.40;;
74995;SDS011;63545;51.690;5.202;2024-03-08T02:10:17;33.00;;;16.73;;
74995;SDS011;63545;51.690;5.202;2024-03-08T02:12:43;31.50;;;16.67;;
74995;SDS011;63545;51.690;5.202;2024-03-08T02:15:08;34.13;;;16.60;;
74995;SDS011;63545;51.690;5.202;2024-03-08T02:17:34;32.80;;;17.07;;
74995;SDS011;63545;51.690;5.202;2024-03-08T02:19:59;34.20;;;17.53;;
74995;SDS011;63545;51.690;5.202;2024-03-08T02:22:28;37.60;;;18.23;;
74995;SDS011;63545;51.690;5.202;2024-03-08T02:24:55;40.60;;;18.13;;
74995;SDS011;63545;51.690;5.202;2024-03-08T02:27:24;37.37;;;19.00;;
74995;SDS011;63545;51.690;5.202;2024-03-08T02:29:50;36.67;;;18.00;;
74995;SDS011;63545;51.690;5.202;2024-03-08T02:32:17;33.22;;;16.73;;
74995;SDS011;63545;51.690;5.202;2024-03-08T02:34:43;34.97;;;17.63;;
74995;SDS011;63545;51.690;5.202;2024-03-08T02:37:08;32.03;;;17.00;;
74995;SDS011;63545;51.690;5.202;2024-03-08T02:39:33;33.95;;;17.80;;
74995;SDS011;63545;51.690;5.202;2024-03-08T02:41:59;37.20;;;17.73;;
74995;SDS011;63545;51.690;5.202;2024-03-08T02:44:24;36.20;;;18.03;;
74995;SDS011;63545;51.690;5.202;2024-03-08T02:46:50;39.00;;;18.00;;
74995;SDS011;63545;51.690;5.202;2024-03-08T02:49:15;36.60;;;17.70;;
74995;SDS011;63545;51.690;5.202;2024-03-08T02:51:41;37.83;;;17.87;;
74995;SDS011;63545;51.690;5.202;2024-03-08T02:54:06;36.03;;;17.70;;
74995;SDS011;63545;51.690;5.202;2024-03-08T02:56:33;37.55;;;18.13;;
74995;SDS011;63545;51.690;5.202;2024-03-08T02:58:59;36.08;;;18.27;;
74995;SDS011;63545;51.690;5.202;2024-03-08T03:01:25;36.83;;;18.17;;
74995;SDS011;63545;51.690;5.202;2024-03-08T03:03:51;38.33;;;18.85;;
74995;SDS011;63545;51.690;5.202;2024-03-08T03:06:16;35.93;;;17.80;;
74995;SDS011;63545;51.690;5.202;2024-03-08T03:08:46;41.95;;;18.88;;
74995;SDS011;63545;51.690;5.202;2024-03-08T03:11:11;35.23;;;17.70;;
74995;SDS011;63545;51.690;5.202;2024-03-08T03:13:38;37.42;;;18.52;;
74995;SDS011;63545;51.690;5.202;2024-03-08T03:16:04;32.63;;;16.75;;
74995;SDS011;63545;51.690;5.202;2024-03-08T03:18:29;39.80;;;19.40;;
74995;SDS011;63545;51.690;5.202;2024-03-08T03:20:55;37.47;;;18.77;;
74995;SDS011;63545;51.690;5.202;2024-03-08T03:23:21;38.35;;;19.35;;
74995;SDS011;63545;51.690;5.202;2024-03-08T03:25:48;36.00;;;18.92;;
74995;SDS011;63545;51.690;5.202;2024-03-08T03:28:13;38.83;;;18.97;;
74995;SDS011;63545;51.690;5.202;2024-03-08T03:30:42;34.58;;;19.13;;
74995;SDS011;63545;51.690;5.202;2024-03-08T03:33:08;37.08;;;19.65;;
74995;SDS011;63545;51.690;5.202;2024-03-08T03:35:34;38.47;;;19.27;;
74995;SDS011;63545;51.690;5.202;2024-03-08T03:38:01;38.63;;;20.13;;
74995;SDS011;63545;51.690;5.202;2024-03-08T03:40:30;37.40;;;19.05;;
74995;SDS011;63545;51.690;5.202;2024-03-08T03:42:56;36.88;;;18.80;;
74995;SDS011;63545;51.690;5.202;2024-03-08T03:45:21;39.03;;;19.17;;
74995;SDS011;63545;51.690;5.202;2024-03-08T03:47:47;37.72;;;18.25;;
74995;SDS011;63545;51.690;5.202;2024-03-08T03:50:12;41.30;;;20.93;;
74995;SDS011;63545;51.690;5.202;2024-03-08T03:52:37;37.60;;;20.03;;
74995;SDS011;63545;51.690;5.202;2024-03-08T03:55:03;38.10;;;18.07;;
74995;SDS011;63545;51.690;5.202;2024-03-08T03:57:29;39.00;;;19.25;;
74995;SDS011;63545;51.690;5.202;2024-03-08T03:59:55;38.00;;;19.90;;
74995;SDS011;63545;51.690;5.202;2024-03-08T04:02:22;38.63;;;19.45;;
74995;SDS011;63545;51.690;5.202;2024-03-08T04:04:47;39.97;;;18.77;;
74995;SDS011;63545;51.690;5.202;2024-03-08T04:07:13;39.47;;;19.90;;
74995;SDS011;63545;51.690;5.202;2024-03-08T04:09:38;39.38;;;20.30;;
74995;SDS011;63545;51.690;5.202;2024-03-08T04:12:04;38.77;;;20.03;;
74995;SDS011;63545;51.690;5.202;2024-03-08T04:14:29;36.72;;;19.38;;
74995;SDS011;63545;51.690;5.202;2024-03-08T04:16:55;38.23;;;19.47;;
74995;SDS011;63545;51.690;5.202;2024-03-08T04:19:20;39.23;;;19.97;;
74995;SDS011;63545;51.690;5.202;2024-03-08T04:21:45;38.57;;;19.80;;
74995;SDS011;63545;51.690;5.202;2024-03-08T04:24:12;38.00;;;19.27;;
74995;SDS011;63545;51.690;5.202;2024-03-08T04:26:37;39.40;;;20.07;;
74995;SDS011;63545;51.690;5.202;2024-03-08T04:29:02;41.27;;;21.00;;
74995;SDS011;63545;51.690;5.202;2024-03-08T04:31:28;43.47;;;20.57;;
74995;SDS011;63545;51.690;5.202;2024-03-08T04:33:53;41.97;;;19.75;;
74995;SDS011;63545;51.690;5.202;2024-03-08T04:36:19;37.93;;;18.50;;
74995;SDS011;63545;51.690;5.202;2024-03-08T04:38:44;43.30;;;20.47;;
74995;SDS011;63545;51.690;5.202;2024-03-08T04:41:10;41.60;;;20.73;;
74995;SDS011;63545;51.690;5.202;2024-03-08T04:43:36;38.67;;;19.30;;
74995;SDS011;63545;51.690;5.202;2024-03-08T04:46:01;42.47;;;20.77;;
74995;SDS011;63545;51.690;5.202;2024-03-08T04:48:28;39.97;;;19.52;;
74995;SDS011;63545;51.690;5.202;2024-03-08T04:50:54;42.92;;;21.33;;
74995;SDS011;63545;51.690;5.202;2024-03-08T04:53:20;42.28;;;20.30;;
74995;SDS011;63545;51.690;5.202;2024-03-08T04:55:46;41.60;;;20.33;;
74995;SDS011;63545;51.690;5.202;2024-03-08T04:58:11;40.63;;;19.83;;
74995;SDS011;63545;51.690;5.202;2024-03-08T05:00:36;44.33;;;21.30;;
74995;SDS011;63545;51.690;5.202;2024-03-08T05:03:02;41.83;;;20.70;;
74995;SDS011;63545;51.690;5.202;2024-03-08T05:05:27;39.47;;;19.27;;
74995;SDS011;63545;51.690;5.202;2024-03-08T05:07:54;43.15;;;19.40;;
74995;SDS011;63545;51.690;5.202;2024-03-08T05:10:19;38.70;;;20.37;;
74995;SDS011;63545;51.690;5.202;2024-03-08T05:12:44;44.13;;;21.50;;
74995;SDS011;63545;51.690;5.202;2024-03-08T05:15:10;42.20;;;20.20;;
74995;SDS011;63545;51.690;5.202;2024-03-08T05:17:35;40.08;;;21.15;;
74995;SDS011;63545;51.690;5.202;2024-03-08T05:20:01;41.97;;;21.20;;
74995;SDS011;63545;51.690;5.202;2024-03-08T05:22:26;42.63;;;21.80;;
74995;SDS011;63545;51.690;5.202;2024-03-08T05:24:52;41.92;;;21.20;;
74995;SDS011;63545;51.690;5.202;2024-03-08T05:27:18;39.30;;;19.03;;
74995;SDS011;63545;51.690;5.202;2024-03-08T05:29:43;44.28;;;21.80;;
74995;SDS011;63545;51.690;5.202;2024-03-08T05:32:08;48.20;;;22.52;;
74995;SDS011;63545;51.690;5.202;2024-03-08T05:34:34;43.55;;;21.67;;
74995;SDS011;63545;51.690;5.202;2024-03-08T05:37:00;42.15;;;21.60;;
74995;SDS011;63545;51.690;5.202;2024-03-08T05:39:26;40.20;;;19.90;;
74995;SDS011;63545;51.690;5.202;2024-03-08T05:41:52;42.90;;;21.00;;
74995;SDS011;63545;51.690;5.202;2024-03-08T05:44:17;45.15;;;21.17;;
74995;SDS011;63545;51.690;5.202;2024-03-08T05:46:43;45.60;;;21.67;;
74995;SDS011;63545;51.690;5.202;2024-03-08T05:49:08;38.47;;;20.53;;
74995;SDS011;63545;51.690;5.202;2024-03-08T05:51:35;46.20;;;22.10;;
74995;SDS011;63545;51.690;5.202;2024-03-08T05:54:04;43.37;;;21.33;;
74995;SDS011;63545;51.690;5.202;2024-03-08T05:56:31;44.92;;;21.58;;
74995;SDS011;63545;51.690;5.202;2024-03-08T05:58:57;42.78;;;21.05;;
74995;SDS011;63545;51.690;5.202;2024-03-08T06:01:23;40.45;;;19.20;;
74995;SDS011;63545;51.690;5.202;2024-03-08T06:03:49;39.92;;;18.63;;
74995;SDS011;63545;51.690;5.202;2024-03-08T06:06:14;44.67;;;21.37;;
74995;SDS011;63545;51.690;5.202;2024-03-08T06:08:40;43.50;;;20.50;;
74995;SDS011;63545;51.690;5.202;2024-03-08T06:11:07;45.85;;;21.95;;
74995;SDS011;63545;51.690;5.202;2024-03-08T06:13:33;44.27;;;21.90;;
74995;SDS011;63545;51.690;5.202;2024-03-08T06:15:59;43.63;;;19.83;;
74995;SDS011;63545;51.690;5.202;2024-03-08T06:18:25;42.50;;;21.30;;
74995;SDS011;63545;51.690;5.202;2024-03-08T06:20:51;43.63;;;19.27;;
74995;SDS011;63545;51.690;5.202;2024-03-08T06:23:16;43.43;;;21.37;;
74995;SDS011;63545;51.690;5.202;2024-03-08T06:25:44;41.13;;;20.13;;
74995;SDS011;63545;51.690;5.202;2024-03-08T06:28:10;43.20;;;22.20;;
74995;SDS011;63545;51.690;5.202;2024-03-08T06:30:35;37.97;;;19.80;;
74995;SDS011;63545;51.690;5.202;2024-03-08T06:33:03;42.38;;;21.98;;
74995;SDS011;63545;51.690;5.202;2024-03-08T06:35:28;42.15;;;19.02;;
74995;SDS011;63545;51.690;5.202;2024-03-08T06:37:57;42.55;;;21.75;;
74995;SDS011;63545;51.690;5.202;2024-03-08T06:40:22;41.53;;;20.17;;
74995;SDS011;63545;51.690;5.202;2024-03-08T06:42:48;40.93;;;21.33;;
74995;SDS011;63545;51.690;5.202;2024-03-08T06:45:13;44.47;;;21.60;;
74995;SDS011;63545;51.690;5.202;2024-03-08T06:47:44;45.20;;;21.52;;
74995;SDS011;63545;51.690;5.202;2024-03-08T06:50:09;44.57;;;21.23;;
74995;SDS011;63545;51.690;5.202;2024-03-08T06:52:34;46.72;;;20.70;;
74995;SDS011;63545;51.690;5.202;2024-03-08T06:55:00;45.30;;;21.85;;
74995;SDS011;63545;51.690;5.202;2024-03-08T06:57:26;43.75;;;21.30;;
74995;SDS011;63545;51.690;5.202;2024-03-08T06:59:52;41.40;;;19.77;;
74995;SDS011;63545;51.690;5.202;2024-03-08T07:02:17;44.83;;;20.63;;
74995;SDS011;63545;51.690;5.202;2024-03-08T07:04:42;40.90;;;20.00;;
74995;SDS011;63545;51.690;5.202;2024-03-08T07:07:08;41.43;;;19.70;;
74995;SDS011;63545;51.690;5.202;2024-03-08T07:09:34;42.95;;;21.35;;
74995;SDS011;63545;51.690;5.202;2024-03-08T07:12:00;40.67;;;20.30;;
74995;SDS011;63545;51.690;5.202;2024-03-08T07:14:26;36.22;;;18.52;;
74995;SDS011;63545;51.690;5.202;2024-03-08T07:16:52;43.60;;;20.90;;
74995;SDS011;63545;51.690;5.202;2024-03-08T07:19:17;42.27;;;21.00;;
74995;SDS011;63545;51.690;5.202;2024-03-08T07:21:44;43.50;;;21.65;;
74995;SDS011;63545;51.690;5.202;2024-03-08T07:24:09;43.30;;;21.33;;
74995;SDS011;63545;51.690;5.202;2024-03-08T07:26:53;42.00;;;20.50;;
74995;SDS011;63545;51.690;5.202;2024-03-08T07:29:19;44.05;;;19.90;;
74995;SDS011;63545;51.690;5.202;2024-03-08T07:31:44;41.77;;;20.17;;
74995;SDS011;63545;51.690;5.202;2024-03-08T07:34:16;39.47;;;19.95;;
74995;SDS011;63545;51.690;5.202;2024-03-08T07:36:44;41.90;;;20.97;;
74995;SDS011;63545;51.690;5.202;2024-03-08T07:39:09;40.75;;;20.45;;
74995;SDS011;63545;51.690;5.202;2024-03-08T07:41:36;44.25;;;20.55;;
74995;SDS011;63545;51.690;5.202;2024-03-08T07:44:07;41.90;;;19.35;;
74995;SDS011;63545;51.690;5.202;2024-03-08T07:46:33;40.22;;;19.95;;
74995;SDS011;63545;51.690;5.202;2024-03-08T07:48:59;39.67;;;20.58;;
74995;SDS011;63545;51.690;5.202;2024-03-08T07:51:25;40.97;;;20.70;;
74995;SDS011;63545;51.690;5.202;2024-03-08T07:53:50;38.28;;;19.42;;
74995;SDS011;63545;51.690;5.202;2024-03-08T07:56:15;42.83;;;20.10;;
74995;SDS011;63545;51.690;5.202;2024-03-08T07:58:43;39.05;;;20.35;;
74995;SDS011;63545;51.690;5.202;2024-03-08T08:01:15;38.00;;;18.95;;
74995;SDS011;63545;51.690;5.202;2024-03-08T08:03:41;40.38;;;19.70;;
74995;SDS011;63545;51.690;5.202;2024-03-08T08:06:07;42.13;;;19.53;;
74995;SDS011;63545;51.690;5.202;2024-03-08T08:08:32;40.60;;;19.97;;
74995;SDS011;63545;51.690;5.202;2024-03-08T08:10:57;40.95;;;19.40;;
74995;SDS011;63545;51.690;5.202;2024-03-08T08:13:23;42.45;;;19.80;;
74995;SDS011;63545;51.690;5.202;2024-03-08T08:15:49;41.03;;;19.43;;
74995;SDS011;63545;51.690;5.202;2024-03-08T08:18:14;37.97;;;20.00;;
74995;SDS011;63545;51.690;5.202;2024-03-08T08:20:39;42.87;;;21.40;;
74995;SDS011;63545;51.690;5.202;2024-03-08T08:23:04;42.30;;;19.47;;
74995;SDS011;63545;51.690;5.202;2024-03-08T08:25:31;40.17;;;19.38;;
74995;SDS011;63545;51.690;5.202;2024-03-08T08:27:59;40.80;;;19.92;;
74995;SDS011;63545;51.690;5.202;2024-03-08T08:30:24;35.17;;;18.10;;
74995;SDS011;63545;51.690;5.202;2024-03-08T08:32:50;36.70;;;19.03;;
74995;SDS011;63545;51.690;5.202;2024-03-08T08:35:15;37.10;;;19.23;;
74995;SDS011;63545;51.690;5.202;2024-03-08T08:37:41;40.17;;;19.80;;
74995;SDS011;63545;51.690;5.202;2024-03-08T08:40:07;36.73;;;19.30;;
74995;SDS011;63545;51.690;5.202;2024-03-08T08:42:39;28.80;;;13.93;;
74995;SDS011;63545;51.690;5.202;2024-03-08T08:45:07;30.73;;;15.47;;
74995;SDS011;63545;51.690;5.202;2024-03-08T08:47:34;32.40;;;16.70;;
74995;SDS011;63545;51.690;5.202;2024-03-08T08:50:02;36.13;;;17.92;;
74995;SDS011;63545;51.690;5.202;2024-03-08T08:52:30;37.00;;;18.50;;
74995;SDS011;63545;51.690;5.202;2024-03-08T08:54:56;37.87;;;19.10;;
74995;SDS011;63545;51.690;5.202;2024-03-08T08:57:22;36.60;;;19.10;;
74995;SDS011;63545;51.690;5.202;2024-03-08T08:59:47;38.72;;;19.15;;
74995;SDS011;63545;51.690;5.202;2024-03-08T09:02:12;38.50;;;18.80;;
74995;SDS011;63545;51.690;5.202;2024-03-08T09:04:39;37.15;;;18.30;;
74995;SDS011;63545;51.690;5.202;2024-03-08T09:07:04;34.22;;;17.83;;
74995;SDS011;63545;51.690;5.202;2024-03-08T09:09:31;37.10;;;19.47;;
74995;SDS011;63545;51.690;5.202;2024-03-08T09:11:57;37.90;;;19.20;;
74995;SDS011;63545;51.690;5.202;2024-03-08T09:14:22;35.23;;;18.30;;
74995;SDS011;63545;51.690;5.202;2024-03-08T09:16:47;31.17;;;15.80;;
74995;SDS011;63545;51.690;5.202;2024-03-08T09:19:13;36.80;;;19.03;;
74995;SDS011;63545;51.690;5.202;2024-03-08T09:21:38;40.05;;;19.40;;
74995;SDS011;63545;51.690;5.202;2024-03-08T09:24:05;37.20;;;18.87;;
74995;SDS011;63545;51.690;5.202;2024-03-08T09:26:31;29.60;;;15.82;;
74995;SDS011;63545;51.690;5.202;2024-03-08T09:28:58;35.65;;;19.80;;
74995;SDS011;63545;51.690;5.202;2024-03-08T09:31:23;39.27;;;21.40;;
74995;SDS011;63545;51.690;5.202;2024-03-08T09:33:49;35.70;;;18.97;;
74995;SDS011;63545;51.690;5.202;2024-03-08T09:36:15;35.90;;;18.48;;
74995;SDS011;63545;51.690;5.202;2024-03-08T09:38:41;34.97;;;18.50;;
74995;SDS011;63545;51.690;5.202;2024-03-08T09:41:06;36.30;;;18.47;;
74995;SDS011;63545;51.690;5.202;2024-03-08T09:43:31;35.88;;;18.50;;
74995;SDS011;63545;51.690;5.202;2024-03-08T09:45:57;35.03;;;17.93;;
74995;SDS011;63545;51.690;5.202;2024-03-08T09:48:22;36.47;;;19.33;;
74995;SDS011;63545;51.690;5.202;2024-03-08T09:50:48;35.72;;;18.48;;
74995;SDS011;63545;51.690;5.202;2024-03-08T09:53:14;32.53;;;18.17;;
74995;SDS011;63545;51.690;5.202;2024-03-08T09:55:39;35.55;;;18.55;;
74995;SDS011;63545;51.690;5.202;2024-03-08T09:58:11;30.98;;;16.05;;
74995;SDS011;63545;51.690;5.202;2024-03-08T10:00:55;35.17;;;18.67;;
74995;SDS011;63545;51.690;5.202;2024-03-08T10:03:22;32.60;;;17.65;;
74995;SDS011;63545;51.690;5.202;2024-03-08T10:05:48;34.65;;;17.67;;
74995;SDS011;63545;51.690;5.202;2024-03-08T10:08:13;33.90;;;17.17;;
74995;SDS011;63545;51.690;5.202;2024-03-08T10:10:39;33.37;;;17.43;;
74995;SDS011;63545;51.690;5.202;2024-03-08T10:13:08;34.38;;;17.17;;
74995;SDS011;63545;51.690;5.202;2024-03-08T10:15:34;31.47;;;17.00;;
74995;SDS011;63545;51.690;5.202;2024-03-08T10:18:00;31.58;;;17.88;;
74995;SDS011;63545;51.690;5.202;2024-03-08T10:20:27;30.05;;;15.75;;
74995;SDS011;63545;51.690;5.202;2024-03-08T10:22:53;30.13;;;15.43;;
74995;SDS011;63545;51.690;5.202;2024-03-08T10:25:19;33.17;;;17.60;;
74995;SDS011;63545;51.690;5.202;2024-03-08T10:27:44;31.17;;;17.00;;
74995;SDS011;63545;51.690;5.202;2024-03-08T10:30:10;29.00;;;17.10;;
74995;SDS011;63545;51.690;5.202;2024-03-08T10:32:38;30.90;;;17.48;;
74995;SDS011;63545;51.690;5.202;2024-03-08T10:35:04;32.60;;;17.42;;
74995;SDS011;63545;51.690;5.202;2024-03-08T10:37:30;29.43;;;15.67;;
74995;SDS011;63545;51.690;5.202;2024-03-08T10:40:04;29.30;;;16.42;;
74995;SDS011;63545;51.690;5.202;2024-03-08T10:42:35;24.63;;;12.73;;
74995;SDS011;63545;51.690;5.202;2024-03-08T10:45:06;32.22;;;14.98;;
74995;SDS011;63545;51.690;5.202;2024-03-08T10:47:41;30.30;;;15.03;;
74995;SDS011;63545;51.690;5.202;2024-03-08T10:50:19;28.58;;;15.07;;
74995;SDS011;63545;51.690;5.202;2024-03-08T10:52:50;28.25;;;15.52;;
74995;SDS011;63545;51.690;5.202;2024-03-08T10:55:19;26.67;;;15.18;;
74995;SDS011;63545;51.690;5.202;2024-03-08T10:57:48;27.60;;;15.82;;
74995;SDS011;63545;51.690;5.202;2024-03-08T11:00:13;28.10;;;16.43;;
74995;SDS011;63545;51.690;5.202;2024-03-08T11:02:43;26.45;;;15.23;;
74995;SDS011;63545;51.690;5.202;2024-03-08T11:05:51;28.88;;;16.65;;
74995;SDS011;63545;51.690;5.202;2024-03-08T11:08:19;30.20;;;14.63;;
74995;SDS011;63545;51.690;5.202;2024-03-08T11:10:51;29.83;;;15.85;;
74995;SDS011;63545;51.690;5.202;2024-03-08T11:13:32;27.13;;;15.82;;
74995;SDS011;63545;51.690;5.202;2024-03-08T11:15:59;27.55;;;15.32;;
74995;SDS011;63545;51.690;5.202;2024-03-08T11:18:25;30.27;;;17.03;;
74995;SDS011;63545;51.690;5.202;2024-03-08T11:20:53;31.55;;;16.00;;
74995;SDS011;63545;51.690;5.202;2024-03-08T11:23:22;27.40;;;15.95;;
74995;SDS011;63545;51.690;5.202;2024-03-08T11:25:47;26.90;;;15.35;;
74995;SDS011;63545;51.690;5.202;2024-03-08T11:28:18;27.25;;;15.32;;
74995;SDS011;63545;51.690;5.202;2024-03-08T11:33:23;25.98;;;15.82;;
74995;SDS011;63545;51.690;5.202;2024-03-08T11:35:50;30.42;;;16.45;;
74995;SDS011;63545;51.690;5.202;2024-03-08T11:38:15;28.33;;;15.33;;
74995;SDS011;63545;51.690;5.202;2024-03-08T11:40:41;26.85;;;16.50;;
74995;SDS011;63545;51.690;5.202;2024-03-08T11:43:08;29.77;;;15.90;;
74995;SDS011;63545;51.690;5.202;2024-03-08T11:45:34;27.17;;;15.37;;
74995;SDS011;63545;51.690;5.202;2024-03-08T11:48:01;26.15;;;15.40;;
74995;SDS011;63545;51.690;5.202;2024-03-08T11:50:28;28.10;;;15.93;;
74995;SDS011;63545;51.690;5.202;2024-03-08T11:52:59;26.33;;;16.20;;
74995;SDS011;63545;51.690;5.202;2024-03-08T11:55:25;24.00;;;15.45;;
74995;SDS011;63545;51.690;5.202;2024-03-08T11:57:58;23.63;;;15.10;;
74995;SDS011;63545;51.690;5.202;2024-03-08T12:00:25;25.42;;;14.20;;
74995;SDS011;63545;51.690;5.202;2024-03-08T12:03:04;23.63;;;14.83;;
74995;SDS011;63545;51.690;5.202;2024-03-08T12:05:31;23.38;;;15.02;;
74995;SDS011;63545;51.690;5.202;2024-03-08T12:07:58;24.83;;;15.55;;
74995;SDS011;63545;51.690;5.202;2024-03-08T12:10:24;23.60;;;15.37;;
74995;SDS011;63545;51.690;5.202;2024-03-08T12:12:51;25.73;;;14.70;;
74995;SDS011;63545;51.690;5.202;2024-03-08T12:15:17;24.25;;;15.18;;
74995;SDS011;63545;51.690;5.202;2024-03-08T12:17:44;27.67;;;15.77;;
74995;SDS011;63545;51.690;5.202;2024-03-08T12:20:25;23.65;;;13.93;;
74995;SDS011;63545;51.690;5.202;2024-03-08T12:22:54;25.23;;;15.50;;
74995;SDS011;63545;51.690;5.202;2024-03-08T12:25:25;26.77;;;15.65;;
74995;SDS011;63545;51.690;5.202;2024-03-08T12:27:51;25.70;;;15.70;;
74995;SDS011;63545;51.690;5.202;2024-03-08T12:32:50;25.75;;;15.65;;
74995;SDS011;63545;51.690;5.202;2024-03-08T12:35:19;31.17;;;15.73;;
74995;SDS011;63545;51.690;5.202;2024-03-08T12:37:47;26.48;;;15.50;;
74995;SDS011;63545;51.690;5.202;2024-03-08T12:40:16;29.73;;;16.92;;
74995;SDS011;63545;51.690;5.202;2024-03-08T12:42:45;24.23;;;15.57;;
74995;SDS011;63545;51.690;5.202;2024-03-08T12:45:12;27.20;;;17.00;;
74995;SDS011;63545;51.690;5.202;2024-03-08T12:47:38;24.57;;;15.10;;
74995;SDS011;63545;51.690;5.202;2024-03-08T12:50:06;26.90;;;15.95;;
74995;SDS011;63545;51.690;5.202;2024-03-08T12:52:33;27.63;;;15.05;;
74995;SDS011;63545;51.690;5.202;2024-03-08T12:54:59;27.85;;;16.65;;
74995;SDS011;63545;51.690;5.202;2024-03-08T12:57:31;26.37;;;16.53;;
74995;SDS011;63545;51.690;5.202;2024-03-08T12:59:58;24.20;;;15.23;;
74995;SDS011;63545;51.690;5.202;2024-03-08T13:02:24;24.77;;;15.18;;
74995;SDS011;63545;51.690;5.202;2024-03-08T13:04:51;25.45;;;16.45;;
74995;SDS011;63545;51.690;5.202;2024-03-08T13:07:25;25.88;;;16.08;;
74995;SDS011;63545;51.690;5.202;2024-03-08T13:09:52;25.77;;;15.80;;
74995;SDS011;63545;51.690;5.202;2024-03-08T13:12:19;25.80;;;14.75;;
74995;SDS011;63545;51.690;5.202;2024-03-08T13:14:45;25.75;;;15.32;;
74995;SDS011;63545;51.690;5.202;2024-03-08T13:17:11;27.35;;;16.77;;
74995;SDS011;63545;51.690;5.202;2024-03-08T13:19:37;26.80;;;16.97;;
74995;SDS011;63545;51.690;5.202;2024-03-08T13:22:03;29.20;;;15.63;;
74995;SDS011;63545;51.690;5.202;2024-03-08T13:24:32;26.83;;;16.45;;
74995;SDS011;63545;51.690;5.202;2024-03-08T13:26:58;29.75;;;15.48;;
74995;SDS011;63545;51.690;5.202;2024-03-08T13:29:24;24.90;;;15.93;;
74995;SDS011;63545;51.690;5.202;2024-03-08T13:31:50;23.67;;;14.68;;
74995;SDS011;63545;51.690;5.202;2024-03-08T13:34:19;25.35;;;14.98;;
74995;SDS011;63545;51.690;5.202;2024-03-08T13:36:52;23.50;;;14.90;;
74995;SDS011;63545;51.690;5.202;2024-03-08T13:39:19;24.15;;;14.80;;
74995;SDS011;63545;51.690;5.202;2024-03-08T13:41:45;25.08;;;15.13;;
74995;SDS011;63545;51.690;5.202;2024-03-08T13:44:11;24.37;;;15.17;;
74995;SDS011;63545;51.690;5.202;2024-03-08T13:46:37;22.92;;;15.18;;
74995;SDS011;63545;51.690;5.202;2024-03-08T13:49:05;26.47;;;15.60;;
74995;SDS011;63545;51.690;5.202;2024-03-08T13:51:33;22.95;;;15.27;;
74995;SDS011;63545;51.690;5.202;2024-03-08T13:53:58;26.90;;;15.43;;
74995;SDS011;63545;51.690;5.202;2024-03-08T13:56:25;26.10;;;15.73;;
74995;SDS011;63545;51.690;5.202;2024-03-08T13:58:51;27.02;;;16.48;;
74995;SDS011;63545;51.690;5.202;2024-03-08T14:01:17;26.90;;;16.00;;
74995;SDS011;63545;51.690;5.202;2024-03-08T14:03:42;26.00;;;15.37;;
74995;SDS011;63545;51.690;5.202;2024-03-08T14:06:08;27.42;;;16.02;;
74995;SDS011;63545;51.690;5.202;2024-03-08T14:08:34;27.03;;;15.93;;
74995;SDS011;63545;51.690;5.202;2024-03-08T14:11:02;29.55;;;16.42;;
74995;SDS011;63545;51.690;5.202;2024-03-08T14:13:36;24.38;;;15.18;;
74995;SDS011;63545;51.690;5.202;2024-03-08T14:16:05;23.30;;;14.88;;
74995;SDS011;63545;51.690;5.202;2024-03-08T14:18:30;24.63;;;15.67;;
74995;SDS011;63545;51.690;5.202;2024-03-08T14:20:56;29.00;;;15.27;;
74995;SDS011;63545;51.690;5.202;2024-03-08T14:23:21;26.53;;;15.80;;